Farlen, Indiana
Current Conditions -  °F | °C
As of 1:55 AM on Sunday 26 Oct 2014 (Local Time) from KDCY Reporting Station
Clear Clear  
Wind Chill: 53°   Ceiling: Unl
Heat Index: 53°   Visibility: 10mi
Dew Point: 48°   Wind: 3mph
Humidity: 83%   Direction: 300°WNW
Pressure: 29.99"   Gusts: NA
Location:  38.8205°N, 86.9659°W
Report Text: KDCY 260655Z AUTO 30003KT 10SM CLR 12/09 A2999 RMK AO2 T01150087
Loading
Personal Weather Stations






























Interactive Weather Map
Tropical Storm Tracking
New forecast layout! Learn more

10-Day Weather Forecast

Advertisements
Track Severe Weather on mobile